CSCL Oceania — VRBI2 — position and weather

sailwx.info

Track history (hours):
 
Tides and Currents Weather Stations Pressure Air Temp Water Temp Dewpoint Dewpoint Depression Visibility Wind Speed Wind Dir Waves Ship Positions

CSCL Oceania

Last reported at 2015-Aug-29 20:29 UTC. Time now 2015-Aug-29 21:01 UTC.
Position N 01°17' E 103°45'.

Length 334 m; beam 42.8 m; draft 14.5 m.

Type: Cargo ship. MMSI: 477020300.

Date/timePositionNaut miles runAvg speedWind from/ knotsBaromVisibWave heightAir tempDewpointWater temp
2015-Aug-29 20:29N 01°17' E 103°45'0 0.0
2015-Aug-29 19:32N 01°17' E 103°45'0 0.0
2015-Aug-29 18:20N 01°17' E 103°45'0 0.0
2015-Aug-29 17:32N 01°17' E 103°45'0 0.0
2015-Aug-29 16:26N 01°17' E 103°45'0 0.0
2015-Aug-29 15:29N 01°17' E 103°45'0 0.0
2015-Aug-29 14:29N 01°17' E 103°45'0 0.0
2015-Aug-29 13:32N 01°17' E 103°45'0 0.0
2015-Aug-29 12:32N 01°17' E 103°45'0 0.0
2015-Aug-29 11:32N 01°17' E 103°45'0 0.0
2015-Aug-29 10:26N 01°17' E 103°45'0 0.0
2015-Aug-29 09:32N 01°17' E 103°45'0 0.0
2015-Aug-29 08:32N 01°17' E 103°45'0 0.5
2015-Aug-29 07:33N 01°16' E 103°45'3 3.5
2015-Aug-29 06:33N 01°14' E 103°43'10 8.8
2015-Aug-29 05:29N 01°12' E 103°33'3 3.4
2015-Aug-29 04:27N 01°10' E 103°30'1 0.7
2015-Aug-29 03:28N 01°11' E 103°30'13112.0
2015-Aug-28 16:32N 02°22' E 101°40'2512.5
2015-Aug-28 14:33N 02°37' E 101°21'19 6.4
2015-Aug-28 11:33N 02°56' E 101°17'0 0.0
2015-Aug-28 08:33N 02°56' E 101°17'0 0.0
2015-Aug-28 06:33N 02°56' E 101°17'0 0.0
2015-Aug-28 04:32N 02°56' E 101°17'0 0.0
2015-Aug-28 02:32N 02°56' E 101°17'0 0.0
2015-Aug-28 00:32N 02°56' E 101°17'0 0.0
2015-Aug-27 22:32N 02°56' E 101°17'0 0.0
2015-Aug-27 17:33N 02°56' E 101°17'11 2.5
2015-Aug-27 13:22N 02°45' E 101°19'0 0.0
2015-Aug-27 12:25N 02°45' E 101°19'0 0.1
2015-Aug-27 10:28N 02°45' E 101°20'0 0.1
2015-Aug-27 09:16N 02°45' E 101°20'0 0.1
2015-Aug-27 07:28N 02°45' E 101°20'0 0.1
2015-Aug-27 05:13N 02°45' E 101°19'0 0.0
2015-Aug-27 03:19N 02°45' E 101°19'0 0.0
2015-Aug-27 02:28N 02°45' E 101°19'0 0.0
2015-Aug-27 00:31N 02°45' E 101°20'0 0.1
2015-Aug-26 22:31N 02°45' E 101°20'0 0.1
2015-Aug-26 21:16N 02°45' E 101°20'0 0.1
2015-Aug-26 20:31N 02°45' E 101°20'0 0.1
2015-Aug-26 17:28N 02°45' E 101°19'0 0.0
2015-Aug-26 13:22N 02°45' E 101°19'0 0.1
2015-Aug-26 08:31N 02°45' E 101°20'0 0.0
2015-Aug-26 07:19N 02°45' E 101°20'0 0.1
2015-Aug-26 05:31N 02°45' E 101°20'0 0.1
2015-Aug-26 04:28N 02°45' E 101°20'0 0.1
2015-Aug-26 03:31N 02°45' E 101°20'0 0.1
2015-Aug-26 02:31N 02°45' E 101°19'0 0.0
2015-Aug-25 23:28N 02°45' E 101°19'0 0.1
2015-Aug-25 20:31N 02°45' E 101°20'10 5.1
2015-Aug-25 18:33N 02°43' E 101°10'1212.2
2015-Aug-25 17:33N 02°49' E 100°59'7212.0
2015-Aug-25 11:33N 03°38' E 100°07'  
Track history (hours):
 
Tides and Currents Weather Stations Pressure Air Temp Water Temp Dewpoint Dewpoint Depression Visibility Wind Speed Wind Dir Waves Ship Positions

CSCL Oceania

Last reported at 2015-Aug-29 20:29 UTC. Time now 2015-Aug-29 21:01 UTC.
Position N 01°17' E 103°45'.

Length 334 m; beam 42.8 m; draft 14.5 m.

Type: Cargo ship. MMSI: 477020300.

Date/timePositionNaut miles runAvg speedWind from/ knotsBaromVisibWave heightAir tempDewpointWater temp
2015-Aug-29 20:29N 01°17' E 103°45'0 0.0
2015-Aug-29 19:32N 01°17' E 103°45'0 0.0
2015-Aug-29 18:20N 01°17' E 103°45'0 0.0
2015-Aug-29 17:32N 01°17' E 103°45'0 0.0
2015-Aug-29 16:26N 01°17' E 103°45'0 0.0
2015-Aug-29 15:29N 01°17' E 103°45'0 0.0
2015-Aug-29 14:29N 01°17' E 103°45'0 0.0
2015-Aug-29 13:32N 01°17' E 103°45'0 0.0
2015-Aug-29 12:32N 01°17' E 103°45'0 0.0
2015-Aug-29 11:32N 01°17' E 103°45'0 0.0
2015-Aug-29 10:26N 01°17' E 103°45'0 0.0
2015-Aug-29 09:32N 01°17' E 103°45'0 0.0
2015-Aug-29 08:32N 01°17' E 103°45'0 0.5
2015-Aug-29 07:33N 01°16' E 103°45'3 3.5
2015-Aug-29 06:33N 01°14' E 103°43'10 8.8
2015-Aug-29 05:29N 01°12' E 103°33'3 3.4
2015-Aug-29 04:27N 01°10' E 103°30'1 0.7
2015-Aug-29 03:28N 01°11' E 103°30'13112.0
2015-Aug-28 16:32N 02°22' E 101°40'2512.5
2015-Aug-28 14:33N 02°37' E 101°21'19 6.4
2015-Aug-28 11:33N 02°56' E 101°17'0 0.0
2015-Aug-28 08:33N 02°56' E 101°17'0 0.0
2015-Aug-28 06:33N 02°56' E 101°17'0 0.0
2015-Aug-28 04:32N 02°56' E 101°17'0 0.0
2015-Aug-28 02:32N 02°56' E 101°17'0 0.0
2015-Aug-28 00:32N 02°56' E 101°17'0 0.0
2015-Aug-27 22:32N 02°56' E 101°17'0 0.0
2015-Aug-27 17:33N 02°56' E 101°17'11 2.5
2015-Aug-27 13:22N 02°45' E 101°19'0 0.0
2015-Aug-27 12:25N 02°45' E 101°19'0 0.1
2015-Aug-27 10:28N 02°45' E 101°20'0 0.1
2015-Aug-27 09:16N 02°45' E 101°20'0 0.1
2015-Aug-27 07:28N 02°45' E 101°20'0 0.1
2015-Aug-27 05:13N 02°45' E 101°19'0 0.0
2015-Aug-27 03:19N 02°45' E 101°19'0 0.0
2015-Aug-27 02:28N 02°45' E 101°19'0 0.0
2015-Aug-27 00:31N 02°45' E 101°20'0 0.1
2015-Aug-26 22:31N 02°45' E 101°20'0 0.1
2015-Aug-26 21:16N 02°45' E 101°20'0 0.1
2015-Aug-26 20:31N 02°45' E 101°20'0 0.1
2015-Aug-26 17:28N 02°45' E 101°19'0 0.0
2015-Aug-26 13:22N 02°45' E 101°19'0 0.1
2015-Aug-26 08:31N 02°45' E 101°20'0 0.0
2015-Aug-26 07:19N 02°45' E 101°20'0 0.1
2015-Aug-26 05:31N 02°45' E 101°20'0 0.1
2015-Aug-26 04:28N 02°45' E 101°20'0 0.1
2015-Aug-26 03:31N 02°45' E 101°20'0 0.1
2015-Aug-26 02:31N 02°45' E 101°19'0 0.0
2015-Aug-25 23:28N 02°45' E 101°19'0 0.1
2015-Aug-25 20:31N 02°45' E 101°20'10 5.1
2015-Aug-25 18:33N 02°43' E 101°10'1212.2
2015-Aug-25 17:33N 02°49' E 100°59'7212.0
2015-Aug-25 11:33N 03°38' E 100°07'  

Dump ship's entire track history